Time;durP1;ratioP1;P1;durP2;ratioP2;P2;SDS_P1;SDS_P2;PMS_P1;PMS_P2;Temp;Humidity;BMP_temperature;BMP_pressure;BME280_temperature;BME280_humidity;BME280_pressure;Samples;Min_cycle;Max_cycle;Signal;HPM_P1;HPM_P2
2023/07/08 00:04:45;;;;;;;8.8;4.6;;;;;;;12.65;80.18;;;;;
2023/07/08 00:14:47;;;;;;;8.8;4.6;;;;;;;12.67;80.76;;;;;
2023/07/08 00:24:45;;;;;;;;;;;;;;;;;;;;;
2023/07/08 00:34:45;;;;;;;6.7;4.2;;;;;;;12.52;81.02;;;;;
2023/07/08 00:45:45;;;;;;;6.7;4.2;;;;;;;12.37;81.47;;;;;
2023/07/08 00:55:45;;;;;;;6.7;4.2;;;;;;;12.34;81.64;;;;;
2023/07/08 01:06:45;;;;;;;5.9;3.1;;;;;;;12.24;81.79;;;;;
2023/07/08 01:16:45;;;;;;;5.9;3.1;;;;;;;12.16;81.61;;;;;
2023/07/08 01:27:46;;;;;;;6.6;2.8;;;;;;;12.03;81.99;;;;;
2023/07/08 01:37:45;;;;;;;6.6;2.8;;;;;;;11.92;81.44;;;;;
2023/07/08 01:48:45;;;;;;;6.6;2.8;;;;;;;11.82;81.86;;;;;
2023/07/08 01:59:45;;;;;;;7.7;3.5;;;;;;;11.58;85.63;;;;;
2023/07/08 02:10:45;;;;;;;7.7;3.5;;;;;;;11.55;83.19;;;;;
2023/07/08 02:20:46;;;;;;;7.7;3.5;;;;;;;11.43;82.7;;;;;
2023/07/08 02:31:45;;;;;;;7.1;3.5;;;;;;;11.32;84.02;;;;;
2023/07/08 02:41:47;;;;;;;7.1;3.5;;;;;;;11.25;83.59;;;;;
2023/07/08 02:51:47;;;;;;;7.1;3.5;;;;;;;11.21;84.36;;;;;
2023/07/08 03:01:47;;;;;;;6.7;3.6;;;;;;;11.19;84.51;;;;;
2023/07/08 03:12:47;;;;;;;6.7;3.6;;;;;;;11.16;86.33;;;;;
2023/07/08 03:22:47;;;;;;;6.7;3.6;;;;;;;11.4;85.35;;;;;
2023/07/08 03:33:47;;;;;;;6.5;3.2;;;;;;;11.64;85.23;;;;;
2023/07/08 03:44:47;;;;;;;6.5;3.2;;;;;;;11.92;84.77;;;;;
2023/07/08 03:54:47;;;;;;;6.5;3.2;;;;;;;12.03;85.43;;;;;
2023/07/08 04:04:47;;;;;;;7.5;4.3;;;;;;;12.37;84.59;;;;;
2023/07/08 04:14:47;;;;;;;7.5;4.3;;;;;;;12.62;84.65;;;;;
2023/07/08 04:24:47;;;;;;;7.5;4.3;;;;;;;12.93;84.3;;;;;
2023/07/08 04:35:47;;;;;;;6.5;3.7;;;;;;;13.45;83.07;;;;;
2023/07/08 04:45:47;;;;;;;6.5;3.7;;;;;;;13.99;82.05;;;;;
2023/07/08 04:56:48;;;;;;;6.5;3.7;;;;;;;14.7;78.99;;;;;
2023/07/08 05:06:47;;;;;;;7.9;4.9;;;;;;;15.26;75.01;;;;;
2023/07/08 05:17:47;;;;;;;7.9;4.9;;;;;;;15.87;73.3;;;;;
2023/07/08 05:27:47;;;;;;;8.3;4.8;;;;;;;16.32;71.45;;;;;
2023/07/08 05:38:47;;;;;;;8.3;4.8;;;;;;;16.96;71.42;;;;;
2023/07/08 05:48:48;;;;;;;8.3;4.8;;;;;;;17.39;70.14;;;;;
2023/07/08 05:59:47;;;;;;;6.6;4.2;;;;;;;17.78;66.94;;;;;
2023/07/08 06:09:47;;;;;;;6.6;4.2;;;;;;;18.37;65.98;;;;;
2023/07/08 06:20:47;;;;;;;6.6;4.2;;;;;;;18.8;62.73;;;;;
2023/07/08 06:30:47;;;;;;;6.6;4;;;;;;;19.26;62.4;;;;;
2023/07/08 06:41:47;;;;;;;6.6;4;;;;;;;19.56;58.45;;;;;
2023/07/08 06:51:47;;;;;;;6.6;4;;;;;;;19.97;56.5;;;;;
2023/07/08 07:02:47;;;;;;;7.1;3.9;;;;;;;20.31;59.14;;;;;
2023/07/08 07:13:47;;;;;;;7.1;3.9;;;;;;;20.86;56.96;;;;;
2023/07/08 07:24:47;;;;;;;7.1;3.9;;;;;;;21.3;54.36;;;;;
2023/07/08 07:34:47;;;;;;;7.6;3.3;;;;;;;21.47;52.68;;;;;
2023/07/08 07:45:47;;;;;;;7.6;3.3;;;;;;;21.76;51.62;;;;;
2023/07/08 07:55:47;;;;;;;7.6;3.3;;;;;;;22.23;51.41;;;;;
2023/07/08 08:05:47;;;;;;;5.7;3.1;;;;;;;22.62;49.26;;;;;
2023/07/08 08:15:47;;;;;;;5.7;3.1;;;;;;;23.02;45.19;;;;;
2023/07/08 08:26:47;;;;;;;5.7;3.1;;;;;;;23.45;43.27;;;;;
2023/07/08 08:36:47;;;;;;;5.7;2.5;;;;;;;23.7;41.4;;;;;
2023/07/08 08:47:47;;;;;;;5.7;2.5;;;;;;;23.99;38.57;;;;;
2023/07/08 08:57:47;;;;;;;4.5;2.2;;;;;;;24.28;38.04;;;;;
2023/07/08 09:08:48;;;;;;;4.5;2.2;;;;;;;24.55;38.79;;;;;
2023/07/08 09:18:48;;;;;;;4.5;2.2;;;;;;;24.85;39.07;;;;;
2023/07/08 09:28:47;;;;;;;3.9;1.9;;;;;;;24.98;36.73;;;;;
2023/07/08 09:38:48;;;;;;;3.9;1.9;;;;;;;25.13;36.89;;;;;
2023/07/08 09:48:47;;;;;;;3.9;1.9;;;;;;;25.33;36.86;;;;;
2023/07/08 09:59:47;;;;;;;4.5;1.9;;;;;;;25.6;38.27;;;;;
2023/07/08 10:09:47;;;;;;;4.5;1.9;;;;;;;25.66;37.81;;;;;
2023/07/08 10:19:47;;;;;;;4.5;1.9;;;;;;;25.69;35.93;;;;;
2023/07/08 10:29:47;;;;;;;4.9;2.2;;;;;;;25.93;35.29;;;;;
2023/07/08 10:40:48;;;;;;;4.9;2.2;;;;;;;26.08;36.56;;;;;
2023/07/08 10:50:47;;;;;;;4.9;2.2;;;;;;;26.16;34.68;;;;;
2023/07/08 11:01:47;;;;;;;4.6;2.1;;;;;;;26.36;40.05;;;;;
2023/07/08 11:12:47;;;;;;;4.6;2.1;;;;;;;26.48;36.91;;;;;
2023/07/08 11:22:47;;;;;;;4.6;2.1;;;;;;;26.76;35.44;;;;;
2023/07/08 11:32:47;;;;;;;5.5;2.6;;;;;;;26.48;33.95;;;;;
2023/07/08 11:43:47;;;;;;;5.5;2.6;;;;;;;27.01;33.48;;;;;
2023/07/08 11:54:47;;;;;;;5.5;2.6;;;;;;;26.73;33.44;;;;;
2023/07/08 12:04:47;;;;;;;4.6;1.9;;;;;;;27.29;34.28;;;;;
2023/07/08 12:14:47;;;;;;;4.6;1.9;;;;;;;27.28;33.39;;;;;
2023/07/08 12:25:47;;;;;;;4.6;1.9;;;;;;;27.62;34.52;;;;;
2023/07/08 12:35:48;;;;;;;4.3;1.9;;;;;;;27.48;34.84;;;;;
2023/07/08 12:46:48;;;;;;;4.3;1.9;;;;;;;27.72;32.13;;;;;
2023/07/08 12:57:47;;;;;;;4.3;2.1;;;;;;;27.85;33.52;;;;;
2023/07/08 13:07:47;;;;;;;4.3;2.1;;;;;;;27.68;35.1;;;;;
2023/07/08 13:17:47;;;;;;;4.3;2.1;;;;;;;27.98;31.59;;;;;
2023/07/08 13:27:48;;;;;;;4.3;2.1;;;;;;;28;31.25;;;;;
2023/07/08 13:37:48;;;;;;;3.9;1.6;;;;;;;28.14;30.11;;;;;
2023/07/08 13:48:47;;;;;;;3.9;1.6;;;;;;;28.4;29.11;;;;;
2023/07/08 13:58:48;;;;;;;6.9;2.6;;;;;;;28.53;29.38;;;;;
2023/07/08 14:08:48;;;;;;;6.9;2.6;;;;;;;28.83;26.67;;;;;
2023/07/08 14:19:47;;;;;;;6.9;2.6;;;;;;;28.9;27.55;;;;;
2023/07/08 14:29:48;;;;;;;3.1;1.4;;;;;;;29.59;24.64;;;;;
2023/07/08 14:40:48;;;;;;;3.1;1.4;;;;;;;29.72;24.65;;;;;
2023/07/08 14:51:47;;;;;;;3.1;1.4;;;;;;;30.07;23.18;;;;;
2023/07/08 15:01:47;;;;;;;2.9;1;;;;;;;30.45;23.48;;;;;
2023/07/08 15:11:47;;;;;;;2.9;1;;;;;;;33.44;25.33;;;;;
2023/07/08 15:22:48;;;;;;;2.9;1;;;;;;;35.31;20.15;;;;;
2023/07/08 15:32:48;;;;;;;3.2;1;;;;;;;38.65;18.45;;;;;
2023/07/08 15:42:48;;;;;;;3.2;1;;;;;;;38.91;18.28;;;;;
2023/07/08 15:53:47;;;;;;;3.2;1;;;;;;;40.06;19.29;;;;;
2023/07/08 16:03:47;;;;;;;3;1.5;;;;;;;39.28;19.53;;;;;
2023/07/08 16:13:48;;;;;;;3;1.5;;;;;;;40.23;17.66;;;;;
2023/07/08 16:24:48;;;;;;;3;1.5;;;;;;;41.2;16.7;;;;;
2023/07/08 16:34:47;;;;;;;3.9;1.6;;;;;;;41.12;19.14;;;;;
2023/07/08 16:44:47;;;;;;;3.9;1.6;;;;;;;41.85;18.96;;;;;
2023/07/08 16:54:48;;;;;;;3.9;1.6;;;;;;;41.75;16.73;;;;;
2023/07/08 17:05:47;;;;;;;9.3;6.5;;;;;;;41.9;18.65;;;;;
2023/07/08 17:15:49;;;;;;;9.3;6.5;;;;;;;38.23;22.35;;;;;
2023/07/08 17:26:48;;;;;;;9.3;6.5;;;;;;;34.42;25.84;;;;;
2023/07/08 17:36:48;;;;;;;4.7;2.5;;;;;;;32.9;24.95;;;;;
2023/07/08 17:47:48;;;;;;;4.7;2.5;;;;;;;35.04;29.29;;;;;
2023/07/08 17:58:48;;;;;;;4.7;2.5;;;;;;;36.52;26.38;;;;;
2023/07/08 18:08:48;;;;;;;6;4;;;;;;;32.79;29.9;;;;;
2023/07/08 18:18:48;;;;;;;6;4;;;;;;;30.04;31.89;;;;;
2023/07/08 18:28:48;;;;;;;6;4;;;;;;;27.61;34.76;;;;;
2023/07/08 18:38:48;;;;;;;8.4;4.5;;;;;;;25.91;39.98;;;;;
2023/07/08 18:49:48;;;;;;;8.4;4.5;;;;;;;24.11;44.24;;;;;
2023/07/08 19:00:48;;;;;;;6.6;3.5;;;;;;;23.13;45.01;;;;;
2023/07/08 19:10:54;;;;;;;6.6;3.5;;;;;;;22.24;48.6;;;;;
2023/07/08 19:21:48;;;;;;;6.6;3.5;;;;;;;21.24;51.07;;;;;
2023/07/08 19:31:48;;;;;;;8.4;3.8;;;;;;;20.81;51.09;;;;;
2023/07/08 19:42:48;;;;;;;8.4;3.8;;;;;;;20.25;51.48;;;;;
2023/07/08 19:52:48;;;;;;;8.4;3.8;;;;;;;19.71;53.15;;;;;
2023/07/08 20:03:48;;;;;;;13.1;9.8;;;;;;;19.13;53.17;;;;;
2023/07/08 20:13:48;;;;;;;13.1;9.8;;;;;;;18.77;55.29;;;;;
2023/07/08 20:24:48;;;;;;;13.1;9.8;;;;;;;18.39;56.09;;;;;
2023/07/08 20:35:48;;;;;;;13.5;9.9;;;;;;;17.95;57.67;;;;;
2023/07/08 20:46:49;;;;;;;13.5;9.9;;;;;;;17.54;60.91;;;;;
2023/07/08 20:56:48;;;;;;;13.5;9.9;;;;;;;17.14;63.28;;;;;
2023/07/08 21:07:48;;;;;;;15.1;9.8;;;;;;;16.83;64.61;;;;;
2023/07/08 21:17:48;;;;;;;15.1;9.8;;;;;;;16.47;64.37;;;;;
2023/07/08 21:27:48;;;;;;;15.1;9.8;;;;;;;16.12;65.81;;;;;
2023/07/08 21:38:48;;;;;;;10.3;7.5;;;;;;;15.77;67.21;;;;;
2023/07/08 21:49:50;;;;;;;10.3;7.5;;;;;;;15.51;67.44;;;;;
2023/07/08 21:59:48;;;;;;;13;8.3;;;;;;;15.25;68.27;;;;;
2023/07/08 22:10:48;;;;;;;13;8.3;;;;;;;14.98;70.83;;;;;
2023/07/08 22:20:48;;;;;;;13;8.3;;;;;;;14.86;71.83;;;;;
2023/07/08 22:30:48;;;;;;;11.5;8.5;;;;;;;14.72;72.96;;;;;
2023/07/08 22:41:48;;;;;;;11.5;8.5;;;;;;;14.54;73.81;;;;;
2023/07/08 22:51:48;;;;;;;11.5;8.5;;;;;;;14.32;73.88;;;;;
2023/07/08 23:01:48;;;;;;;12.5;10.2;;;;;;;14.18;75.16;;;;;
2023/07/08 23:12:48;;;;;;;12.5;10.2;;;;;;;13.98;76.36;;;;;
2023/07/08 23:22:48;;;;;;;12.5;10.2;;;;;;;13.82;75.54;;;;;
2023/07/08 23:33:48;;;;;;;14.2;9.2;;;;;;;13.65;76.67;;;;;
2023/07/08 23:44:48;;;;;;;14.2;9.2;;;;;;;13.49;78.67;;;;;
2023/07/08 23:54:48;;;;;;;14.2;9.2;;;;;;;13.34;78.27;;;;;
